AirBridgeCargo B744 at Moscow on Jun 30th 2013, overran runway

Last Update: July 1, 2013 / 14:07:25 GMT/Zulu time

Bookmark this article
Incident Facts

Date of incident
Jun 30, 2013

Classification
Incident

Aircraft Registration
VQ-BJB

Aircraft Type
Boeing 747-400

ICAO Type Designator
B744

Airport ICAO Code
UUEE

An AirBridgeCargo Boeing 747-400, registration VQ-BJB performing freight flight RU-766 from Frankfurt/Main (Germany) to Moscow Sheremetyevo (Russia), landed on Sheremetyevo's runway 25R at 20:47L (16:47Z) but overran the end of the runway by about 240 meters/790 feet and came to a stop with all gear on soft ground. No injuries occurred, the aircraft received minor damage.

Airport surveillance cameras show emergency services responded to the overrun in heavy rain.

The airport was closed for about 40 minutes before operations resumed on the parallel runway. Runway 07L/25R was closed for about 7 hours until the aircraft was moved back onto paved surface and was towed to the apron.

Rosaviatsia reported the aircraft came to a stop 240 meters past the runway end and 12 meters to the left of the extended runway center line. The aircraft received damage to the #5 and #6 wheels, the tyre #6 was cut, damage also occurred to runway end lights.

Radar data suggest the aircraft landed very long with a touch down past the mid point of the runway.

Metars:
UUEE 301800Z 07003MPS 9999 -RA BKN043 18/17 Q1008 NOSIG
UUEE 301730Z 11004MPS 9999 -SHRA BKN043CB BKN100 18/17 Q1009 NOSIG
UUEE 301700Z 10006MPS 9999 -SHRA BKN046CB BKN100 19/17 Q1009 RETS NOSIG
UUEE 301630Z 11003MPS 9999 -SHRA BKN040CB BKN100 20/18 Q1009 RETS NOSIG
UUEE 301600Z 00000MPS 9999 -TSRA BKN040CB BKN100 20/19 Q1008 TEMPO VRB15MPS TSRA
UUEE 301530Z 28003MPS 9999 -TSRA BKN033CB BKN100 20/18 Q1008 TEMPO VRB15MPS TSRA
UUEE 301500Z 19004MPS 160V220 9999 -TSRA BKN033CB BKN100 21/19 Q1008 TEMPO VRB15MPS TSRA
UUEE 301430Z 29004MPS 9999 -SHRA BKN041CB BKN100 21/19 Q1008 RETS NOSIG
UUEE 301400Z 08004MPS 9999 -TSRA BKN031CB 20/18 Q1007 TEMPO VRB15MPS TSRA
Incident Facts

Date of incident
Jun 30, 2013

Classification
Incident

Aircraft Registration
VQ-BJB

Aircraft Type
Boeing 747-400

ICAO Type Designator
B744

Airport ICAO Code
UUEE

This article is published under license from Avherald.com. © of text by Avherald.com.
Article source

You can read 4 more free articles without a subscription.

Subscribe now and continue reading without any limits!

Are you a subscriber?
Login
Subscribe

Read unlimited articles and receive our daily update briefing. Gain better insights into what is happening in commercial aviation safety.

Free newsletter

Want to know more and stay ahead? Get our free weekly newsletter and join 4946 existing subscribers.

By subscribing, you accept our terms and conditions and confirm that you've read our privacy policy.

Send tip

Support AeroInside by sending a small tip amount.

Related articles

Newest articles

Subscribe today

Are you researching aviation incidents? Get access to AeroInside Insights, unlimited read access and receive the daily newsletter.

Pick your plan and subscribe

Partner

Blockaviation logo

A new way to document and demonstrate airworthiness compliance and aircraft value. Find out more.

Virtual Speech logo

ELITE Simulation Solutions is a leading global provider of Flight Simulation Training Devices, IFR training software as well as flight controls and related services. Find out more.

Get updates

Never miss an article from AeroInside. Subscribe to our free weekly newsletter and join 4946 existing subscribers.

By subscribing, you accept our terms and conditions and that you've read our privacy policy.

AeroInside Blog
Popular aircraft
Airbus A320
Boeing 737-800
Boeing 737-800 MAX
Popular airlines
American Airlines
United
Delta
Air Canada
Lufthansa
British Airways